Time;durP1;ratioP1;P1;durP2;ratioP2;P2;SDS_P1;SDS_P2;PMS_P1;PMS_P2;Temp;Humidity;BMP_temperature;BMP_pressure;BME280_temperature;BME280_humidity;BME280_pressure;Samples;Min_cycle;Max_cycle;Signal;HPM_P1;HPM_P2
2022/07/09 00:00:28;;;;;;;3.27;3.03;;;15.40;99.90;;;;;;5069394;28;20263;-56
2022/07/09 00:02:56;;;;;;;3.37;3.20;;;15.40;99.90;;;;;;5069889;28;20204;-55
2022/07/09 00:05:23;;;;;;;3.17;3.07;;;15.30;99.90;;;;;;5070480;28;20209;-56
2022/07/09 00:07:50;;;;;;;3.27;3.13;;;15.20;99.90;;;;;;5070897;28;20201;-56
2022/07/09 00:10:17;;;;;;;3.17;3.03;;;15.10;99.90;;;;;;5061351;28;20710;-55
2022/07/09 00:12:44;;;;;;;3.70;3.13;;;15.00;99.90;;;;;;5069556;28;20213;-55
2022/07/09 00:15:12;;;;;;;4.20;3.90;;;15.00;99.90;;;;;;5070396;28;20208;-55
2022/07/09 00:17:39;;;;;;;24.33;3.83;;;15.00;99.90;;;;;;5069203;28;20209;-55
2022/07/09 00:20:09;;;;;;;4.90;3.10;;;15.20;99.90;;;;;;5070080;28;20271;-55
2022/07/09 00:22:36;;;;;;;4.40;2.97;;;15.20;99.90;;;;;;5062474;28;20205;-55
2022/07/09 00:25:03;;;;;;;3.70;3.43;;;15.10;99.90;;;;;;5073918;28;20196;-55
2022/07/09 00:27:30;;;;;;;4.93;3.30;;;15.20;99.90;;;;;;5063666;28;20213;-55
2022/07/09 00:29:57;;;;;;;3.53;3.30;;;15.10;99.90;;;;;;5073549;28;20728;-55
2022/07/09 00:32:24;;;;;;;3.27;2.97;;;14.90;99.90;;;;;;5072351;28;20236;-55
2022/07/09 00:34:51;;;;;;;4.53;3.63;;;14.80;99.90;;;;;;5072981;28;20228;-55
2022/07/09 00:37:20;;;;;;;5.60;3.47;;;14.70;99.90;;;;;;5073668;28;20691;-55
2022/07/09 00:39:47;;;;;;;3.03;2.93;;;14.70;99.90;;;;;;5073624;28;20232;-56
2022/07/09 00:42:14;;;;;;;2.80;2.60;;;14.70;99.90;;;;;;5072830;28;20201;-55
2022/07/09 00:44:41;;;;;;;3.20;3.00;;;14.70;99.90;;;;;;5073609;28;20556;-55
2022/07/09 00:47:09;;;;;;;2.80;2.60;;;14.60;99.90;;;;;;5069362;28;20203;-56
2022/07/09 00:49:39;;;;;;;4.97;3.13;;;14.50;99.90;;;;;;5068008;28;20201;-55
2022/07/09 00:52:07;;;;;;;3.20;3.07;;;14.50;99.90;;;;;;5064349;28;20305;-56
2022/07/09 00:54:36;;;;;;;3.23;2.93;;;14.40;99.90;;;;;;5073386;28;20205;-55
2022/07/09 00:57:06;;;;;;;2.50;2.40;;;14.40;99.90;;;;;;5073486;28;20197;-55
2022/07/09 00:59:34;;;;;;;3.13;2.80;;;14.40;99.90;;;;;;5072237;28;20225;-55
2022/07/09 01:02:03;;;;;;;3.00;2.57;;;14.30;99.90;;;;;;5072531;28;20193;-55
2022/07/09 01:04:30;;;;;;;3.03;2.87;;;14.30;99.90;;;;;;5072979;28;20216;-55
2022/07/09 01:06:58;;;;;;;2.30;2.30;;;14.30;99.90;;;;;;5063793;28;20216;-55
2022/07/09 01:09:26;;;;;;;3.20;3.00;;;14.30;99.90;;;;;;5072825;28;20590;-55
2022/07/09 01:11:55;;;;;;;2.87;2.63;;;14.30;99.90;;;;;;5070269;28;20572;-56
2022/07/09 01:14:23;;;;;;;2.67;2.57;;;14.30;99.90;;;;;;5066203;28;20202;-55
2022/07/09 01:16:59;;;;;;;2.60;2.50;;;14.30;99.90;;;;;;5072776;28;20223;-55
2022/07/09 01:19:27;;;;;;;2.53;2.40;;;14.30;99.90;;;;;;5066202;28;20281;-55
2022/07/09 01:21:55;;;;;;;2.53;2.37;;;14.30;99.90;;;;;;5068886;28;20220;-55
2022/07/09 01:24:23;;;;;;;2.90;2.77;;;14.20;99.90;;;;;;5063286;28;20201;-56
2022/07/09 01:26:52;;;;;;;2.60;2.47;;;14.20;99.90;;;;;;5072857;28;20225;-55
2022/07/09 01:29:19;;;;;;;2.80;2.70;;;14.20;99.90;;;;;;5072750;28;20205;-55
2022/07/09 01:31:46;;;;;;;3.33;3.10;;;14.20;99.90;;;;;;5072178;28;20217;-55
2022/07/09 01:34:13;;;;;;;3.40;3.17;;;14.10;99.90;;;;;;5071878;28;20212;-55
2022/07/09 01:36:40;;;;;;;2.90;2.70;;;14.10;99.90;;;;;;5072562;28;20629;-55
2022/07/09 01:39:09;;;;;;;3.40;3.30;;;14.10;99.90;;;;;;5066753;28;20197;-55
2022/07/09 01:41:36;;;;;;;3.03;2.93;;;14.10;99.90;;;;;;5071597;28;20275;-56
2022/07/09 01:44:03;;;;;;;2.80;2.70;;;14.10;99.90;;;;;;5072568;28;20469;-55
2022/07/09 01:46:30;;;;;;;2.93;2.70;;;14.10;99.90;;;;;;5071648;28;20201;-56
2022/07/09 01:48:57;;;;;;;2.70;2.50;;;14.10;99.90;;;;;;5072250;28;20197;-55
2022/07/09 01:51:24;;;;;;;3.20;3.00;;;14.10;99.90;;;;;;5070259;28;20625;-55
2022/07/09 01:53:51;;;;;;;3.77;2.30;;;14.10;99.90;;;;;;5072521;28;20197;-55
2022/07/09 01:56:19;;;;;;;2.30;2.20;;;14.10;99.90;;;;;;5066651;28;20202;-55
2022/07/09 01:58:46;;;;;;;2.57;2.37;;;14.10;99.90;;;;;;5068809;28;20201;-56
2022/07/09 02:01:13;;;;;;;1.80;1.70;;;14.00;99.90;;;;;;5071371;28;20229;-55
2022/07/09 02:03:40;;;;;;;1.93;1.83;;;14.00;99.90;;;;;;5063133;28;20198;-55
2022/07/09 02:06:07;;;;;;;2.47;2.47;;;14.00;99.90;;;;;;5071661;28;20276;-55
2022/07/09 02:08:34;;;;;;;1.90;1.90;;;14.00;99.90;;;;;;5072159;28;20631;-56
2022/07/09 02:11:02;;;;;;;2.20;2.10;;;14.00;99.90;;;;;;5071656;28;20221;-55
2022/07/09 02:13:30;;;;;;;2.43;2.33;;;14.00;99.90;;;;;;5061021;28;20645;-55
2022/07/09 02:16:00;;;;;;;2.23;2.13;;;14.00;99.90;;;;;;5069180;28;20209;-56
2022/07/09 02:18:29;;;;;;;2.47;2.27;;;14.00;99.90;;;;;;5066039;28;20201;-56
2022/07/09 02:20:56;;;;;;;1.73;1.63;;;14.00;99.90;;;;;;5071667;28;20221;-56
2022/07/09 02:23:23;;;;;;;1.73;1.53;;;14.00;99.90;;;;;;5071209;28;20259;-55
2022/07/09 02:25:50;;;;;;;2.20;2.10;;;13.90;99.90;;;;;;5070998;28;20387;-55
2022/07/09 02:28:17;;;;;;;3.50;1.87;;;13.90;99.90;;;;;;5069301;28;20779;-55
2022/07/09 02:30:46;;;;;;;2.00;1.87;;;14.00;99.90;;;;;;5071102;28;20229;-55
2022/07/09 02:33:13;;;;;;;1.60;1.50;;;14.00;99.90;;;;;;5070752;28;20217;-55
2022/07/09 02:35:40;;;;;;;1.80;1.70;;;14.00;99.90;;;;;;5071459;28;20625;-55
2022/07/09 02:38:07;;;;;;;2.07;1.97;;;14.00;99.90;;;;;;5071628;28;20560;-55
2022/07/09 02:40:34;;;;;;;2.40;2.30;;;13.90;99.90;;;;;;5070239;28;20225;-55
2022/07/09 02:43:01;;;;;;;3.13;2.90;;;13.90;99.90;;;;;;5070634;28;20216;-55
2022/07/09 02:45:28;;;;;;;2.33;2.23;;;13.90;99.90;;;;;;5064075;28;20201;-55
2022/07/09 02:47:56;;;;;;;2.47;2.37;;;13.90;99.90;;;;;;5069471;28;20247;-55
2022/07/09 02:50:23;;;;;;;2.70;2.50;;;13.90;99.90;;;;;;5071428;28;20287;-56
2022/07/09 02:52:50;;;;;;;3.00;2.80;;;13.80;99.90;;;;;;5070843;28;20221;-55
2022/07/09 02:55:18;;;;;;;2.40;2.20;;;13.80;99.90;;;;;;5061981;28;20197;-56
2022/07/09 02:57:45;;;;;;;2.23;2.13;;;13.80;99.90;;;;;;5071097;28;20244;-55
2022/07/09 03:00:12;;;;;;;2.50;2.50;;;13.90;99.90;;;;;;5071563;28;20221;-55
2022/07/09 03:02:39;;;;;;;5.30;2.80;;;13.90;99.90;;;;;;5061933;28;20202;-55
2022/07/09 03:05:09;;;;;;;2.50;2.30;;;13.80;99.90;;;;;;5070578;28;20670;-55
2022/07/09 03:07:37;;;;;;;3.37;3.03;;;13.80;99.90;;;;;;5062855;28;20552;-55
2022/07/09 03:10:05;;;;;;;3.90;2.80;;;13.80;99.90;;;;;;5070070;28;20221;-55
2022/07/09 03:12:32;;;;;;;2.43;2.23;;;13.70;99.90;;;;;;5070294;28;20313;-55
2022/07/09 03:14:59;;;;;;;7.10;2.90;;;13.60;99.90;;;;;;5061528;28;20205;-55
2022/07/09 03:17:26;;;;;;;2.67;2.47;;;13.60;99.90;;;;;;5070223;28;20197;-55
2022/07/09 03:19:53;;;;;;;2.90;2.80;;;13.50;99.90;;;;;;5069268;28;20228;-55
2022/07/09 03:22:22;;;;;;;3.17;2.97;;;13.50;99.90;;;;;;5070209;28;20189;-55
2022/07/09 03:24:49;;;;;;;3.03;2.50;;;13.50;99.90;;;;;;5069910;28;20201;-55
2022/07/09 03:27:16;;;;;;;2.67;2.47;;;13.40;99.90;;;;;;5070534;28;20254;-55
2022/07/09 03:29:43;;;;;;;3.07;2.97;;;13.40;99.90;;;;;;5070767;28;20236;-55
2022/07/09 03:32:10;;;;;;;4.17;3.87;;;13.40;99.90;;;;;;5068943;28;20204;-55
2022/07/09 03:34:38;;;;;;;3.83;3.63;;;13.40;99.90;;;;;;5068292;28;20211;-55
2022/07/09 03:37:05;;;;;;;6.20;4.23;;;13.30;99.90;;;;;;5069649;28;20586;-55
2022/07/09 03:39:34;;;;;;;2.80;2.80;;;13.40;99.90;;;;;;5070379;28;20258;-55
2022/07/09 03:42:01;;;;;;;3.03;2.60;;;13.30;99.90;;;;;;5064470;28;20198;-55
2022/07/09 03:44:28;;;;;;;2.93;2.80;;;13.30;99.90;;;;;;5069248;28;20678;-55
2022/07/09 03:46:55;;;;;;;2.33;2.23;;;13.30;99.90;;;;;;5069158;28;20189;-55
2022/07/09 03:49:22;;;;;;;2.67;2.57;;;13.30;99.90;;;;;;5067979;28;20201;-55
2022/07/09 03:51:49;;;;;;;2.30;2.20;;;13.40;99.90;;;;;;5061943;28;20225;-55
2022/07/09 03:54:16;;;;;;;2.37;2.33;;;13.40;99.90;;;;;;5068495;28;20248;-55
2022/07/09 03:56:45;;;;;;;4.17;3.87;;;13.40;99.90;;;;;;5074488;28;20323;-56
2022/07/09 03:59:12;;;;;;;2.40;2.30;;;13.30;99.90;;;;;;5072295;28;20290;-55
2022/07/09 04:01:39;;;;;;;3.27;2.80;;;13.30;99.90;;;;;;5071702;28;20245;-55
2022/07/09 04:04:06;;;;;;;1.80;1.80;;;13.30;99.90;;;;;;5072252;28;20189;-55
2022/07/09 04:06:33;;;;;;;3.13;2.50;;;13.30;99.90;;;;;;5069954;28;20211;-55
2022/07/09 04:09:04;;;;;;;2.30;2.20;;;13.30;99.90;;;;;;5071516;28;20270;-55
2022/07/09 04:11:31;;;;;;;2.40;2.30;;;13.30;99.90;;;;;;5072227;28;20216;-55
2022/07/09 04:13:59;;;;;;;2.73;2.30;;;13.30;99.90;;;;;;5072502;28;20263;-55
2022/07/09 04:16:26;;;;;;;2.50;2.30;;;13.40;99.90;;;;;;5072500;28;20204;-55
2022/07/09 04:18:53;;;;;;;2.37;2.27;;;13.50;99.90;;;;;;5072848;28;20190;-55
2022/07/09 04:21:21;;;;;;;3.20;3.10;;;13.60;99.90;;;;;;5071817;28;20221;-55
2022/07/09 04:23:48;;;;;;;4.97;3.03;;;13.70;99.90;;;;;;5065063;28;20247;-55
2022/07/09 04:26:15;;;;;;;3.43;2.40;;;13.80;99.90;;;;;;5068937;28;20205;-55
2022/07/09 04:28:42;;;;;;;2.87;2.70;;;13.80;99.90;;;;;;5072421;28;20688;-56
2022/07/09 04:31:11;;;;;;;2.60;2.50;;;13.90;99.90;;;;;;5067002;28;20290;-55
2022/07/09 04:33:37;;;;;;;2.60;2.50;;;14.00;99.90;;;;;;5068031;28;20275;-55
2022/07/09 04:36:05;;;;;;;2.83;2.63;;;14.10;99.90;;;;;;5069687;28;20242;-56
2022/07/09 04:38:32;;;;;;;2.63;2.53;;;14.30;99.90;;;;;;5072217;28;20278;-55
2022/07/09 04:40:59;;;;;;;2.87;2.77;;;14.40;99.90;;;;;;5070173;28;20278;-55
2022/07/09 04:43:26;;;;;;;5.30;3.00;;;14.50;99.90;;;;;;5062378;28;20197;-55
2022/07/09 04:45:53;;;;;;;2.97;2.87;;;14.50;99.90;;;;;;5070051;28;20204;-55
2022/07/09 04:48:21;;;;;;;2.43;2.33;;;14.60;99.90;;;;;;5071872;28;20613;-55
2022/07/09 04:50:49;;;;;;;2.83;2.53;;;14.60;99.90;;;;;;5073294;28;20212;-55
2022/07/09 04:53:16;;;;;;;3.63;2.67;;;14.70;99.90;;;;;;5074073;28;20216;-55
2022/07/09 04:55:43;;;;;;;3.60;2.77;;;14.80;99.90;;;;;;5076347;28;20201;-55
2022/07/09 04:58:10;;;;;;;2.77;2.67;;;14.80;99.90;;;;;;5070171;28;20264;-55
2022/07/09 05:00:37;;;;;;;2.60;2.50;;;14.90;99.90;;;;;;5076220;28;20270;-55
2022/07/09 05:03:09;;;;;;;4.17;2.17;;;15.00;99.90;;;;;;5068364;28;20576;-55
2022/07/09 05:05:38;;;;;;;3.00;2.90;;;15.20;99.90;;;;;;5069968;28;20232;-55
2022/07/09 05:08:05;;;;;;;2.57;2.37;;;15.60;99.90;;;;;;5076489;28;20254;-55
2022/07/09 05:10:33;;;;;;;2.57;2.23;;;16.10;99.90;;;;;;5074689;28;20225;-55
2022/07/09 05:13:00;;;;;;;2.47;2.37;;;16.90;99.90;;;;;;5069865;28;20217;-55
2022/07/09 05:15:30;;;;;;;2.10;1.83;;;17.80;99.90;;;;;;5071204;28;20221;-55
2022/07/09 05:17:57;;;;;;;2.43;2.33;;;18.70;99.90;;;;;;5072475;28;20193;-55
2022/07/09 05:20:27;;;;;;;1.37;1.37;;;19.70;99.90;;;;;;5071459;28;20213;-56
2022/07/09 05:22:55;;;;;;;2.20;2.00;;;20.20;99.90;;;;;;5063167;28;20602;-55
2022/07/09 05:25:23;;;;;;;2.40;1.50;;;20.70;99.90;;;;;;5072819;28;20306;-56
2022/07/09 05:27:50;;;;;;;1.27;1.27;;;21.20;99.90;;;;;;5063602;28;20284;-56
2022/07/09 05:30:17;;;;;;;1.87;1.77;;;21.80;99.90;;;;;;5063316;28;20587;-56
2022/07/09 05:32:45;;;;;;;2.60;1.50;;;22.90;99.90;;;;;;5070934;28;20197;-56
2022/07/09 05:35:13;;;;;;;1.40;1.40;;;23.10;99.90;;;;;;5068955;28;20651;-56
2022/07/09 05:37:43;;;;;;;1.90;1.80;;;23.30;99.90;;;;;;5068999;28;20205;-56
2022/07/09 05:40:13;;;;;;;1.67;1.57;;;23.70;99.90;;;;;;5071862;28;20259;-55
2022/07/09 05:42:40;;;;;;;2.60;1.43;;;24.10;99.90;;;;;;5069763;28;20577;-56
2022/07/09 05:45:09;;;;;;;0.93;0.93;;;24.30;99.90;;;;;;5070999;28;20201;-56
2022/07/09 05:47:40;;;;;;;1.53;1.43;;;24.60;99.90;;;;;;5067953;28;20217;-56
2022/07/09 05:50:08;;;;;;;1.27;1.17;;;24.70;99.90;;;;;;5069196;28;20304;-56
2022/07/09 05:52:36;;;;;;;0.97;0.97;;;25.10;99.90;;;;;;5069562;28;20213;-56
2022/07/09 05:55:03;;;;;;;1.67;1.20;;;25.30;99.90;;;;;;5076096;28;20220;-57
2022/07/09 05:57:33;;;;;;;0.90;0.90;;;25.80;99.90;;;;;;5069390;28;20716;-56
2022/07/09 06:00:03;;;;;;;1.23;1.13;;;26.50;99.90;;;;;;5067659;28;20236;-57
2022/07/09 06:02:30;;;;;;;1.50;1.40;;;26.80;99.90;;;;;;5068172;28;20227;-56
2022/07/09 06:04:57;;;;;;;1.20;1.10;;;26.70;99.90;;;;;;5065140;28;20247;-56
2022/07/09 06:07:24;;;;;;;1.00;1.00;;;26.50;99.60;;;;;;5071508;28;20201;-56
2022/07/09 06:09:51;;;;;;;1.67;1.67;;;26.20;99.90;;;;;;5069518;28;20710;-56
2022/07/09 06:12:18;;;;;;;1.15;1.15;;;26.60;98.70;;;;;;5069192;28;20717;-57
2022/07/09 06:14:46;;;;;;;1.30;1.20;;;26.80;98.60;;;;;;5068780;28;20217;-56
2022/07/09 06:17:13;;;;;;;1.30;0.88;;;27.00;96.80;;;;;;5077889;28;20225;-57
2022/07/09 06:19:40;;;;;;;1.70;1.35;;;27.20;95.50;;;;;;5060942;28;20545;-56
2022/07/09 06:22:07;;;;;;;2.08;1.98;;;27.50;94.40;;;;;;5068121;28;20205;-56
2022/07/09 06:24:35;;;;;;;1.38;1.05;;;27.40;95.80;;;;;;5070331;28;20199;-57
2022/07/09 06:27:05;;;;;;;1.45;1.35;;;27.80;95.00;;;;;;5059483;28;20229;-56
2022/07/09 06:29:32;;;;;;;1.65;1.05;;;27.90;94.80;;;;;;5071345;28;20215;-56
2022/07/09 06:32:01;;;;;;;1.30;1.30;;;28.30;94.40;;;;;;5063168;28;20249;-56
2022/07/09 06:34:27;;;;;;;1.52;1.45;;;28.60;94.70;;;;;;5065465;28;20296;-56
2022/07/09 06:36:54;;;;;;;1.25;1.15;;;28.30;93.80;;;;;;5070076;28;20667;-56
2022/07/09 06:42:06;;;;;;;1.98;1.88;;;28.50;92.80;;;;;;5062265;28;20654;-57
2022/07/09 06:44:34;;;;;;;1.45;1.35;;;27.80;92.90;;;;;;5066333;28;20284;-58
2022/07/09 06:47:03;;;;;;;1.88;1.33;;;28.40;93.80;;;;;;5069561;28;20232;-56
2022/07/09 06:49:30;;;;;;;1.20;1.10;;;28.40;92.20;;;;;;5064596;28;20201;-57
2022/07/09 06:51:57;;;;;;;1.42;1.42;;;28.70;91.10;;;;;;5058520;28;20238;-57
2022/07/09 06:54:24;;;;;;;0.90;0.90;;;28.70;90.60;;;;;;5059293;28;20267;-58
2022/07/09 06:56:51;;;;;;;1.75;1.05;;;28.90;88.20;;;;;;5060422;28;20691;-58
2022/07/09 06:59:19;;;;;;;1.42;1.35;;;28.80;86.30;;;;;;5060621;28;20197;-57
2022/07/09 07:01:46;;;;;;;2.28;1.63;;;29.20;87.20;;;;;;5058005;28;20213;-56
2022/07/09 07:04:15;;;;;;;1.30;1.05;;;29.50;87.20;;;;;;5046695;28;20540;-57
2022/07/09 07:06:42;;;;;;;1.45;1.30;;;29.70;84.70;;;;;;5057929;28;20648;-57
2022/07/09 07:09:09;;;;;;;1.38;1.27;;;30.00;84.60;;;;;;5060198;28;20262;-57
2022/07/09 07:11:36;;;;;;;2.10;1.13;;;29.70;82.70;;;;;;5055958;28;20927;-57
2022/07/09 07:14:03;;;;;;;1.40;1.30;;;29.50;85.40;;;;;;5059883;28;20225;-57
2022/07/09 07:16:30;;;;;;;1.52;0.90;;;29.80;89.60;;;;;;5066941;28;20232;-58
2022/07/09 07:18:58;;;;;;;0.88;0.88;;;29.60;86.30;;;;;;5059722;28;20197;-57
2022/07/09 07:21:26;;;;;;;1.35;1.35;;;29.60;86.00;;;;;;5059704;28;20373;-57
2022/07/09 07:23:53;;;;;;;1.23;1.23;;;29.70;86.80;;;;;;5060366;28;20736;-57
2022/07/09 07:26:20;;;;;;;1.23;1.13;;;30.30;86.90;;;;;;5065899;28;20254;-58
2022/07/09 07:28:48;;;;;;;0.80;0.80;;;30.60;84.30;;;;;;5060001;28;20201;-58
2022/07/09 07:31:15;;;;;;;1.20;1.00;;;30.50;86.30;;;;;;5063651;28;20261;-59
2022/07/09 07:33:43;;;;;;;1.15;1.08;;;30.20;80.90;;;;;;5074635;28;20617;-59
2022/07/09 07:36:10;;;;;;;0.85;0.85;;;30.00;84.10;;;;;;5071512;28;20279;-59
2022/07/09 07:38:38;;;;;;;0.90;0.90;;;30.20;83.60;;;;;;5069810;28;20205;-59
2022/07/09 07:41:05;;;;;;;0.90;0.90;;;30.40;87.90;;;;;;5071924;28;20270;-59
2022/07/09 07:43:32;;;;;;;1.08;1.05;;;30.50;86.40;;;;;;5071152;28;20197;-59
2022/07/09 07:45:59;;;;;;;5.60;1.70;;;30.50;85.00;;;;;;5071596;28;20649;-59
2022/07/09 07:48:27;;;;;;;1.67;1.10;;;30.20;84.10;;;;;;5071515;28;20228;-58
2022/07/09 07:50:54;;;;;;;1.58;1.13;;;30.70;85.10;;;;;;5072104;28;20221;-58
2022/07/09 07:53:21;;;;;;;1.88;1.08;;;30.70;87.30;;;;;;5073899;28;20209;-59
2022/07/09 07:55:50;;;;;;;1.50;1.50;;;30.70;84.50;;;;;;5074409;28;20690;-59
2022/07/09 07:58:17;;;;;;;2.25;1.10;;;30.60;85.90;;;;;;5068315;28;20286;-59
2022/07/09 08:00:44;;;;;;;1.75;1.70;;;30.80;85.80;;;;;;5071389;28;20220;-59
2022/07/09 08:03:11;;;;;;;1.30;1.30;;;30.60;85.90;;;;;;5073131;28;20243;-59
2022/07/09 08:05:38;;;;;;;0.90;0.90;;;30.50;86.40;;;;;;5073477;28;20231;-59
2022/07/09 08:08:08;;;;;;;2.63;1.40;;;30.80;85.50;;;;;;5073213;28;20201;-59
2022/07/09 08:10:35;;;;;;;1.38;1.10;;;30.90;89.40;;;;;;5071271;28;20221;-59
2022/07/09 08:13:03;;;;;;;1.45;1.45;;;30.90;83.30;;;;;;5072136;28;20208;-58
2022/07/09 08:15:31;;;;;;;1.42;1.25;;;30.90;87.60;;;;;;5069985;28;20250;-59
2022/07/09 08:17:58;;;;;;;4.03;1.83;;;31.20;86.30;;;;;;5072214;28;20263;-58
2022/07/09 08:20:25;;;;;;;2.53;2.33;;;30.40;83.40;;;;;;5065916;28;20209;-58
2022/07/09 08:22:52;;;;;;;2.65;2.28;;;30.40;85.50;;;;;;5062425;28;20204;-58
2022/07/09 08:25:19;;;;;;;2.22;2.13;;;30.70;85.30;;;;;;5063657;28;20193;-58
2022/07/09 08:27:46;;;;;;;2.20;2.10;;;30.60;87.20;;;;;;5065869;28;20322;-58
2022/07/09 08:30:14;;;;;;;4.85;2.88;;;30.80;90.00;;;;;;5066394;28;20289;-58
2022/07/09 08:32:41;;;;;;;1.80;1.70;;;31.10;90.60;;;;;;5062444;28;20251;-58
2022/07/09 08:35:09;;;;;;;2.55;2.35;;;30.90;90.20;;;;;;5063799;28;20251;-58
2022/07/09 08:37:36;;;;;;;5.22;2.65;;;31.20;90.60;;;;;;5062428;28;20284;-58
2022/07/09 08:40:03;;;;;;;3.22;2.92;;;30.00;91.20;;;;;;5063169;28;20217;-57
2022/07/09 08:42:31;;;;;;;3.75;3.20;;;29.40;92.30;;;;;;5060760;28;20209;-58
2022/07/09 08:44:59;;;;;;;2.80;2.63;;;29.50;93.40;;;;;;5062126;28;20222;-58
2022/07/09 08:47:27;;;;;;;2.90;2.80;;;29.50;92.60;;;;;;5061111;28;20197;-58
2022/07/09 08:49:58;;;;;;;3.47;3.17;;;29.70;91.70;;;;;;5062286;28;20217;-58
2022/07/09 08:52:25;;;;;;;2.40;2.17;;;29.10;91.90;;;;;;5060334;28;20659;-58
2022/07/09 08:54:54;;;;;;;3.53;2.35;;;28.30;92.70;;;;;;5061491;28;20213;-57
2022/07/09 08:57:21;;;;;;;2.30;2.22;;;28.10;92.50;;;;;;5064253;28;20205;-58
2022/07/09 08:59:49;;;;;;;2.42;2.30;;;27.80;94.50;;;;;;5061196;28;20228;-58
2022/07/09 09:02:19;;;;;;;4.03;2.67;;;28.40;94.40;;;;;;5061121;28;20205;-57
2022/07/09 09:04:48;;;;;;;5.15;2.50;;;29.00;95.00;;;;;;5062813;28;20519;-58
2022/07/09 09:07:17;;;;;;;3.33;3.13;;;28.80;94.80;;;;;;5061961;28;20527;-58
2022/07/09 09:09:44;;;;;;;2.95;2.78;;;28.20;95.70;;;;;;5061592;28;20598;-58
2022/07/09 09:12:13;;;;;;;5.40;2.27;;;27.80;94.80;;;;;;5062852;28;20213;-58
2022/07/09 09:14:40;;;;;;;1.75;1.75;;;27.40;95.20;;;;;;5062736;28;20221;-57
2022/07/09 09:17:09;;;;;;;2.27;1.77;;;27.30;92.60;;;;;;5061186;28;20691;-58
2022/07/09 09:19:36;;;;;;;3.37;2.63;;;27.50;95.80;;;;;;5062622;28;20209;-57
2022/07/09 09:22:05;;;;;;;4.80;2.47;;;27.30;95.00;;;;;;5064603;28;20197;-57
2022/07/09 09:24:32;;;;;;;2.13;1.70;;;27.60;93.50;;;;;;5069879;28;20197;-58
2022/07/09 09:27:00;;;;;;;1.45;1.42;;;27.60;94.00;;;;;;5064277;28;20199;-58
2022/07/09 09:29:27;;;;;;;1.33;1.30;;;28.20;94.00;;;;;;5059980;28;20288;-57
2022/07/09 09:31:55;;;;;;;1.45;1.33;;;28.80;92.80;;;;;;5061576;28;20213;-57
2022/07/09 09:34:23;;;;;;;1.23;1.13;;;28.90;91.60;;;;;;5059963;28;20649;-58
2022/07/09 09:36:51;;;;;;;2.28;1.65;;;28.40;92.80;;;;;;5064802;28;20205;-58
2022/07/09 09:39:21;;;;;;;1.40;1.30;;;28.50;92.10;;;;;;5066157;28;20197;-57
2022/07/09 09:41:49;;;;;;;0.95;0.80;;;28.40;92.20;;;;;;5062629;28;20628;-57
2022/07/09 09:44:19;;;;;;;3.08;1.30;;;28.80;90.60;;;;;;5060008;28;20189;-58
2022/07/09 09:46:47;;;;;;;1.52;1.30;;;29.00;92.50;;;;;;5075685;28;20250;-58
2022/07/09 09:49:15;;;;;;;1.38;1.27;;;29.00;91.30;;;;;;5070626;28;20220;-57
2022/07/09 09:51:51;;;;;;;2.65;1.48;;;29.20;91.30;;;;;;5069426;28;20223;-58
2022/07/09 09:54:20;;;;;;;1.10;1.10;;;29.10;90.20;;;;;;5069971;28;20216;-57
2022/07/09 09:56:48;;;;;;;1.95;1.52;;;29.10;91.20;;;;;;5070999;28;20576;-57
2022/07/09 09:59:16;;;;;;;1.52;1.10;;;29.00;91.40;;;;;;5069626;28;20201;-58
2022/07/09 10:01:44;;;;;;;2.83;1.63;;;29.50;93.30;;;;;;5066407;28;20270;-57
2022/07/09 10:04:13;;;;;;;3.40;1.33;;;29.90;90.40;;;;;;5068564;28;20250;-57
2022/07/09 10:06:41;;;;;;;1.58;1.00;;;29.90;92.50;;;;;;5070025;28;20201;-57
2022/07/09 10:09:09;;;;;;;2.05;1.08;;;30.10;89.70;;;;;;5071881;28;20215;-58
2022/07/09 10:11:42;;;;;;;1.52;1.30;;;30.40;88.00;;;;;;5071217;28;20225;-57
2022/07/09 10:14:15;;;;;;;1.85;1.40;;;30.50;89.80;;;;;;5071826;28;20251;-57
2022/07/09 10:16:42;;;;;;;1.00;1.00;;;29.80;89.60;;;;;;5071804;28;20224;-57
2022/07/09 10:19:09;;;;;;;3.53;1.23;;;29.10;91.00;;;;;;5071843;28;20572;-57
2022/07/09 10:21:38;;;;;;;1.85;1.38;;;29.20;90.40;;;;;;5065620;28;20225;-57
2022/07/09 10:24:06;;;;;;;2.38;1.00;;;29.20;91.70;;;;;;5063729;28;20293;-57
2022/07/09 10:26:46;;;;;;;2.50;1.50;;;29.00;91.60;;;;;;5060873;28;20225;-57
2022/07/09 10:29:25;;;;;;;1.10;1.00;;;29.10;91.00;;;;;;5062271;28;20249;-57
2022/07/09 10:31:53;;;;;;;1.95;1.05;;;28.90;91.00;;;;;;5070205;28;20201;-57
2022/07/09 10:34:41;;;;;;;1.20;1.10;;;28.80;92.00;;;;;;5061948;28;20197;-57
2022/07/09 10:37:08;;;;;;;0.85;0.73;;;29.00;87.90;;;;;;5061891;28;20228;-58
2022/07/09 10:39:35;;;;;;;2.33;0.93;;;28.80;90.00;;;;;;5061488;28;20956;-58
2022/07/09 10:42:05;;;;;;;0.85;0.85;;;29.20;91.20;;;;;;5062084;28;20619;-57
2022/07/09 10:44:36;;;;;;;2.55;1.00;;;29.40;90.80;;;;;;5062177;28;20734;-57
2022/07/09 10:47:04;;;;;;;1.63;1.20;;;29.10;90.20;;;;;;5068604;28;20201;-57
2022/07/09 10:49:31;;;;;;;2.33;1.13;;;28.80;90.30;;;;;;5058083;28;21062;-57
2022/07/09 10:51:59;;;;;;;1.15;0.90;;;28.80;88.90;;;;;;5066967;28;20205;-58
2022/07/09 10:54:26;;;;;;;1.40;1.30;;;29.10;92.70;;;;;;5068042;28;20278;-57
2022/07/09 10:56:54;;;;;;;1.23;1.23;;;29.10;89.40;;;;;;5058766;28;21081;-58
2022/07/09 10:59:23;;;;;;;1.20;1.05;;;29.20;91.30;;;;;;5059826;28;20197;-58
2022/07/09 11:01:51;;;;;;;2.15;1.38;;;29.20;84.50;;;;;;5060438;28;20258;-57
2022/07/09 11:04:28;;;;;;;2.13;0.80;;;29.40;85.40;;;;;;5060483;28;20204;-57
2022/07/09 11:06:55;;;;;;;1.33;0.90;;;29.20;82.60;;;;;;5059375;28;20196;-57
2022/07/09 11:09:23;;;;;;;2.47;1.00;;;28.90;90.60;;;;;;5062091;28;20197;-57
2022/07/09 11:11:50;;;;;;;1.20;0.85;;;28.80;91.50;;;;;;5061662;28;20282;-57
2022/07/09 11:14:17;;;;;;;2.35;0.75;;;28.30;89.70;;;;;;5067011;28;20356;-57
2022/07/09 11:16:56;;;;;;;1.13;0.80;;;27.90;91.90;;;;;;5060549;28;20271;-57
2022/07/09 11:19:23;;;;;;;1.30;0.73;;;27.70;88.70;;;;;;5060284;28;20201;-57
2022/07/09 11:21:51;;;;;;;1.05;0.70;;;27.50;92.10;;;;;;5058092;28;20681;-57
2022/07/09 11:24:19;;;;;;;1.15;0.77;;;27.20;91.60;;;;;;5067595;28;20274;-57
2022/07/09 11:26:47;;;;;;;0.85;0.85;;;27.30;92.30;;;;;;5061722;28;20237;-57
2022/07/09 11:29:15;;;;;;;1.02;0.60;;;26.80;86.50;;;;;;5059661;28;20197;-57
2022/07/09 11:31:48;;;;;;;2.65;0.98;;;26.60;88.60;;;;;;5063925;28;20229;-57
2022/07/09 11:34:17;;;;;;;1.90;0.70;;;26.50;89.00;;;;;;5062647;28;20492;-57
2022/07/09 11:36:46;;;;;;;1.97;0.80;;;26.60;87.50;;;;;;5057680;28;20330;-57
2022/07/09 11:39:23;;;;;;;1.33;0.60;;;26.50;84.40;;;;;;5069146;28;20209;-56
2022/07/09 11:41:51;;;;;;;1.53;0.50;;;26.10;85.10;;;;;;5068882;28;20200;-56
2022/07/09 11:44:22;;;;;;;0.63;0.53;;;26.00;90.80;;;;;;5070970;28;20349;-57
2022/07/09 11:47:02;;;;;;;1.00;0.70;;;25.90;90.30;;;;;;5066464;28;20201;-57
2022/07/09 11:49:35;;;;;;;1.03;0.50;;;25.90;90.30;;;;;;5070643;28;20204;-57
2022/07/09 11:52:02;;;;;;;1.03;0.63;;;26.00;93.30;;;;;;5070265;28;20209;-57
2022/07/09 11:54:30;;;;;;;0.83;0.50;;;26.00;86.40;;;;;;5070809;28;20205;-57
2022/07/09 11:56:57;;;;;;;0.60;0.60;;;26.10;83.50;;;;;;5070644;28;20592;-57
2022/07/09 11:59:30;;;;;;;1.10;0.63;;;26.00;90.30;;;;;;5070597;28;20213;-56
2022/07/09 12:01:58;;;;;;;0.93;0.93;;;26.00;87.80;;;;;;5069135;28;20296;-56
2022/07/09 12:04:28;;;;;;;1.77;0.63;;;25.80;89.80;;;;;;5070488;28;20263;-56
2022/07/09 12:06:57;;;;;;;0.50;0.50;;;25.90;90.00;;;;;;5070564;28;20204;-56
2022/07/09 12:09:31;;;;;;;0.70;0.60;;;25.70;86.60;;;;;;5070726;28;20204;-56
2022/07/09 12:11:58;;;;;;;1.37;0.63;;;25.80;87.70;;;;;;5067492;28;20205;-56
2022/07/09 12:14:26;;;;;;;2.57;0.83;;;25.80;92.50;;;;;;5050221;28;20194;-56
2022/07/09 12:16:53;;;;;;;2.10;0.70;;;25.80;93.00;;;;;;5050394;28;20217;-56
2022/07/09 12:19:20;;;;;;;1.00;0.73;;;25.90;91.00;;;;;;5058313;28;20271;-55
2022/07/09 12:21:47;;;;;;;0.80;0.80;;;25.80;91.30;;;;;;5065513;28;20205;-56
2022/07/09 12:24:15;;;;;;;0.80;0.80;;;25.80;91.40;;;;;;5072907;28;20194;-56
2022/07/09 12:26:42;;;;;;;1.60;0.80;;;25.70;90.30;;;;;;5072638;28;20217;-56
2022/07/09 12:29:09;;;;;;;0.80;0.80;;;25.60;93.20;;;;;;5072777;28;20290;-55
2022/07/09 12:31:37;;;;;;;0.70;0.70;;;25.50;92.40;;;;;;5071640;28;20233;-56
2022/07/09 12:34:05;;;;;;;0.80;0.80;;;25.50;92.30;;;;;;5072578;28;20246;-56
2022/07/09 12:36:32;;;;;;;1.33;0.83;;;25.50;93.50;;;;;;5065876;28;20319;-56
2022/07/09 12:38:59;;;;;;;0.80;0.80;;;25.30;91.00;;;;;;5072425;28;20296;-56
2022/07/09 12:41:27;;;;;;;2.63;0.90;;;25.30;94.00;;;;;;5071706;28;20236;-56
2022/07/09 12:43:54;;;;;;;1.10;0.60;;;25.30;93.60;;;;;;5072335;28;20193;-56
2022/07/09 12:46:21;;;;;;;0.60;0.60;;;25.30;90.90;;;;;;5072116;28;20189;-56
2022/07/09 12:48:48;;;;;;;0.97;0.63;;;25.50;94.10;;;;;;5070768;28;20719;-56
2022/07/09 12:51:15;;;;;;;0.90;0.67;;;25.60;90.40;;;;;;5070234;28;20301;-56
2022/07/09 12:53:42;;;;;;;1.60;0.60;;;25.60;90.50;;;;;;5067588;28;20251;-56